Time;durP1;ratioP1;P1;durP2;ratioP2;P2;SDS_P1;SDS_P2;PMS_P1;PMS_P2;Temp;Humidity;BMP_temperature;BMP_pressure;BME280_temperature;BME280_humidity;BME280_pressure;Samples;Min_cycle;Max_cycle;Signal;HPM_P1;HPM_P2
2021/03/01 00:00:27;;;;;;;38.67;20.17;;;4.60;99.90;;;;;;5048283;28;20025;-47
2021/03/01 00:02:53;;;;;;;33.92;18.42;;;4.60;99.90;;;;;;5048003;28;20365;-47
2021/03/01 00:05:20;;;;;;;37.78;19.98;;;4.70;99.90;;;;;;5047654;28;20171;-47
2021/03/01 00:07:46;;;;;;;40.28;19.80;;;4.70;99.90;;;;;;5048220;28;20490;-47
2021/03/01 00:10:12;;;;;;;38.85;20.88;;;4.70;99.90;;;;;;5048376;28;20032;-49
2021/03/01 00:12:38;;;;;;;41.40;21.10;;;4.70;99.90;;;;;;5048591;28;20165;-46
2021/03/01 00:15:05;;;;;;;41.95;21.90;;;4.70;99.90;;;;;;5047399;28;20081;-49
2021/03/01 00:17:30;;;;;;;44.47;20.95;;;4.70;99.90;;;;;;5047929;28;20052;-49
2021/03/01 00:19:55;;;;;;;41.50;21.42;;;4.70;99.90;;;;;;5048159;28;20025;-50
2021/03/01 00:22:21;;;;;;;41.78;22.05;;;4.70;99.90;;;;;;5048392;28;20037;-47
2021/03/01 00:24:46;;;;;;;45.53;23.25;;;4.70;99.90;;;;;;5048197;28;20017;-47
2021/03/01 00:27:12;;;;;;;46.35;22.23;;;4.70;99.90;;;;;;5048131;28;20112;-48
2021/03/01 00:29:37;;;;;;;41.90;21.38;;;4.70;99.90;;;;;;5048011;28;20112;-46
2021/03/01 00:32:03;;;;;;;43.10;20.58;;;4.70;99.90;;;;;;5047984;28;20021;-46
2021/03/01 00:34:29;;;;;;;42.13;21.95;;;4.70;99.90;;;;;;5047950;28;20411;-49
2021/03/01 00:36:54;;;;;;;40.03;20.13;;;4.70;99.90;;;;;;5051343;28;20183;-48
2021/03/01 00:39:20;;;;;;;42.55;21.73;;;4.70;99.90;;;;;;5052097;28;20351;-46
2021/03/01 00:41:45;;;;;;;45.40;21.30;;;4.70;99.90;;;;;;5050708;28;20739;-46
2021/03/01 00:44:11;;;;;;;38.45;21.27;;;4.70;99.90;;;;;;5051466;28;20544;-49
2021/03/01 00:46:36;;;;;;;47.58;22.77;;;4.70;99.90;;;;;;5050970;28;20056;-46
2021/03/01 00:49:02;;;;;;;45.83;22.73;;;4.70;99.90;;;;;;5051381;28;20033;-46
2021/03/01 00:51:28;;;;;;;49.50;22.70;;;4.70;99.90;;;;;;5051608;28;20021;-47
2021/03/01 00:53:53;;;;;;;47.47;22.52;;;4.70;99.90;;;;;;5051818;28;20027;-47
2021/03/01 00:56:19;;;;;;;46.42;22.65;;;4.70;99.90;;;;;;5050976;28;20433;-46
2021/03/01 00:58:44;;;;;;;48.58;23.67;;;4.60;99.90;;;;;;5051778;28;20175;-47
2021/03/01 01:01:10;;;;;;;50.60;23.90;;;4.70;99.90;;;;;;5051492;28;20051;-46
2021/03/01 01:03:35;;;;;;;49.28;23.60;;;4.60;99.90;;;;;;5051306;28;20024;-46
2021/03/01 01:06:01;;;;;;;48.72;24.23;;;4.60;99.90;;;;;;5050710;28;20067;-46
2021/03/01 01:08:26;;;;;;;59.97;27.10;;;4.70;99.90;;;;;;5051344;28;20379;-47
2021/03/01 01:10:53;;;;;;;50.85;24.77;;;4.60;99.90;;;;;;5051652;28;20382;-47
2021/03/01 01:13:19;;;;;;;54.83;26.02;;;4.60;99.90;;;;;;5051498;28;20104;-46
2021/03/01 01:15:44;;;;;;;53.22;24.45;;;4.60;99.90;;;;;;5050422;28;20124;-47
2021/03/01 01:18:10;;;;;;;48.88;24.67;;;4.60;99.90;;;;;;5050860;28;20029;-46
2021/03/01 01:20:35;;;;;;;55.38;27.10;;;4.60;99.90;;;;;;5050962;28;20045;-49
2021/03/01 01:23:01;;;;;;;48.35;24.70;;;4.60;99.90;;;;;;5050979;28;20025;-46
2021/03/01 01:25:27;;;;;;;56.50;26.50;;;4.70;99.90;;;;;;5050381;28;20028;-47
2021/03/01 01:27:52;;;;;;;50.00;24.42;;;4.70;99.90;;;;;;5050624;28;20024;-47
2021/03/01 01:30:21;;;;;;;50.63;25.83;;;4.70;99.90;;;;;;5050882;28;20291;-45
2021/03/01 01:32:47;;;;;;;48.83;24.33;;;4.60;99.90;;;;;;5049136;28;20439;-45
2021/03/01 01:35:14;;;;;;;53.30;24.05;;;4.60;99.90;;;;;;5050207;28;20060;-44
2021/03/01 01:37:39;;;;;;;46.53;25.60;;;4.60;99.90;;;;;;5050167;28;20063;-44
2021/03/01 01:40:07;;;;;;;47.85;23.83;;;4.60;99.90;;;;;;5050582;28;20029;-45
2021/03/01 01:42:34;;;;;;;48.10;24.45;;;4.60;99.90;;;;;;5049137;28;20032;-45
2021/03/01 01:45:00;;;;;;;48.58;25.13;;;4.70;99.90;;;;;;5048638;28;20025;-46
2021/03/01 01:47:25;;;;;;;48.38;24.77;;;4.60;99.90;;;;;;5050006;28;20033;-45
2021/03/01 01:49:51;;;;;;;53.60;26.27;;;4.60;99.90;;;;;;5050760;28;20078;-47
2021/03/01 01:52:17;;;;;;;50.03;25.17;;;4.60;99.90;;;;;;5049195;28;20036;-46
2021/03/01 01:54:43;;;;;;;47.35;24.33;;;4.60;99.90;;;;;;5049119;28;20021;-47
2021/03/01 01:57:09;;;;;;;45.53;25.17;;;4.70;99.90;;;;;;5049579;28;20114;-45
2021/03/01 01:59:35;;;;;;;47.45;24.30;;;4.70;99.90;;;;;;5050209;28;20116;-45
2021/03/01 02:02:01;;;;;;;45.45;23.45;;;4.70;99.90;;;;;;5049805;28;20467;-45
2021/03/01 02:04:32;;;;;;;47.97;24.23;;;4.60;99.90;;;;;;5050031;28;20467;-46
2021/03/01 02:07:06;;;;;;;52.38;25.33;;;4.60;99.90;;;;;;5049653;28;20025;-47
2021/03/01 02:10:01;;;;;;;53.05;26.08;;;4.70;99.90;;;;;;5050048;28;20063;-46
2021/03/01 02:12:29;;;;;;;45.40;23.00;;;4.70;99.90;;;;;;5050263;28;20025;-46
2021/03/01 02:15:21;;;;;;;47.63;24.77;;;4.70;99.90;;;;;;5049239;28;20134;-47
2021/03/01 02:17:46;;;;;;;50.50;24.20;;;4.70;99.90;;;;;;5050109;28;20251;-46
2021/03/01 02:20:12;;;;;;;53.15;25.02;;;4.70;99.90;;;;;;5049832;28;20116;-47
2021/03/01 02:22:41;;;;;;;47.47;24.15;;;4.70;99.90;;;;;;5048771;28;20074;-47
2021/03/01 02:25:08;;;;;;;51.28;25.75;;;4.70;99.90;;;;;;5049367;28;20045;-46
2021/03/01 02:27:48;;;;;;;52.65;24.98;;;4.70;99.90;;;;;;5049423;28;20087;-49
2021/03/01 02:30:25;;;;;;;47.50;25.60;;;4.70;99.90;;;;;;5048464;28;20296;-46
2021/03/01 02:32:55;;;;;;;48.05;24.92;;;4.70;99.90;;;;;;5049761;28;20449;-46
2021/03/01 02:35:22;;;;;;;46.95;23.08;;;4.70;99.90;;;;;;5049444;28;20021;-45
2021/03/01 02:37:49;;;;;;;44.67;23.73;;;4.70;99.90;;;;;;5049736;28;20021;-45
2021/03/01 02:40:18;;;;;;;44.40;22.92;;;4.70;99.90;;;;;;5049987;28;20489;-48
2021/03/01 02:42:44;;;;;;;50.55;24.83;;;4.70;99.90;;;;;;5049582;28;20075;-45
2021/03/01 02:45:11;;;;;;;47.00;23.35;;;4.70;99.90;;;;;;5048909;28;20059;-46
2021/03/01 02:47:37;;;;;;;47.03;23.75;;;4.80;99.90;;;;;;5049172;28;20098;-46
2021/03/01 02:50:04;;;;;;;54.67;26.65;;;4.70;99.90;;;;;;5049542;28;20378;-46
2021/03/01 02:52:30;;;;;;;39.97;21.42;;;4.70;99.90;;;;;;5049330;28;20383;-46
2021/03/01 02:54:57;;;;;;;45.92;23.90;;;4.70;99.90;;;;;;5048600;28;20025;-46
2021/03/01 02:57:25;;;;;;;45.70;22.92;;;4.70;99.90;;;;;;5051530;28;20054;-47
2021/03/01 02:59:53;;;;;;;48.05;23.58;;;4.70;99.90;;;;;;5055737;28;20028;-46
2021/03/01 03:02:19;;;;;;;53.50;26.08;;;4.70;99.90;;;;;;5058162;28;20391;-48
2021/03/01 03:04:48;;;;;;;48.22;25.92;;;4.70;99.90;;;;;;5054972;28;20028;-45
2021/03/01 03:07:14;;;;;;;52.90;26.23;;;4.80;99.90;;;;;;5057317;28;20025;-45
2021/03/01 03:09:44;;;;;;;57.50;28.00;;;4.70;99.90;;;;;;5057602;28;20028;-46
2021/03/01 03:12:12;;;;;;;65.05;30.52;;;4.60;99.90;;;;;;5056614;28;20382;-46
2021/03/01 03:14:38;;;;;;;53.72;27.20;;;4.60;99.90;;;;;;5058823;28;20074;-46
2021/03/01 03:17:05;;;;;;;53.08;27.23;;;4.60;99.90;;;;;;5056508;28;20405;-45
2021/03/01 03:19:30;;;;;;;49.72;24.95;;;4.60;99.90;;;;;;5058124;28;20021;-49
2021/03/01 03:21:56;;;;;;;56.10;26.05;;;4.50;99.90;;;;;;5057434;28;20032;-47
2021/03/01 03:24:22;;;;;;;53.50;26.88;;;4.60;99.90;;;;;;5059263;28;20032;-48
2021/03/01 03:26:48;;;;;;;54.92;26.52;;;4.50;99.90;;;;;;5056103;28;20017;-45
2021/03/01 03:29:13;;;;;;;49.85;24.45;;;4.60;99.90;;;;;;5058783;28;20043;-46
2021/03/01 03:31:39;;;;;;;52.72;25.30;;;4.60;99.90;;;;;;5057411;28;20179;-46
2021/03/01 03:34:06;;;;;;;52.15;26.33;;;4.60;99.90;;;;;;5055361;28;20035;-45
2021/03/01 03:36:36;;;;;;;46.25;24.13;;;4.60;99.90;;;;;;5057977;28;20028;-45
2021/03/01 03:39:11;;;;;;;42.47;21.17;;;4.60;99.90;;;;;;5058861;28;20028;-45
2021/03/01 03:41:38;;;;;;;41.53;21.13;;;4.60;99.90;;;;;;5048386;28;20033;-47
2021/03/01 03:44:06;;;;;;;38.85;19.77;;;4.70;99.90;;;;;;5048279;28;20609;-46
2021/03/01 03:46:32;;;;;;;43.17;21.10;;;4.70;99.90;;;;;;5048057;28;20394;-47
2021/03/01 03:48:59;;;;;;;44.40;21.92;;;4.70;99.90;;;;;;5048513;28;20029;-45
2021/03/01 03:51:28;;;;;;;47.40;24.15;;;4.70;99.90;;;;;;5048373;28;20029;-46
2021/03/01 03:54:01;;;;;;;43.85;22.63;;;4.60;99.90;;;;;;5048147;28;20032;-44
2021/03/01 03:56:30;;;;;;;44.60;22.73;;;4.60;99.90;;;;;;5047810;28;20032;-47
2021/03/01 03:59:05;;;;;;;42.67;23.17;;;4.70;99.90;;;;;;5048503;28;20017;-46
2021/03/01 04:01:33;;;;;;;43.22;22.40;;;4.70;99.90;;;;;;5048338;28;20028;-45
2021/03/01 04:04:04;;;;;;;45.40;21.63;;;4.70;99.90;;;;;;5046228;28;20079;-46
2021/03/01 04:06:31;;;;;;;43.78;21.15;;;4.70;99.90;;;;;;5047611;28;20021;-48
2021/03/01 04:08:57;;;;;;;49.90;24.05;;;4.70;99.90;;;;;;5048445;28;20036;-46
2021/03/01 04:11:24;;;;;;;42.38;21.67;;;4.70;99.90;;;;;;5050166;28;20033;-48
2021/03/01 04:13:53;;;;;;;40.88;20.55;;;4.70;99.90;;;;;;5052300;28;20087;-46
2021/03/01 04:16:21;;;;;;;40.47;20.67;;;4.70;99.90;;;;;;5051629;28;20035;-46
2021/03/01 04:18:51;;;;;;;33.78;18.65;;;4.70;99.90;;;;;;5051957;28;20014;-46
2021/03/01 04:21:18;;;;;;;39.00;21.55;;;4.70;99.90;;;;;;5052131;28;20065;-46
2021/03/01 04:23:47;;;;;;;37.85;18.85;;;4.70;99.90;;;;;;5052040;28;20025;-47
2021/03/01 04:26:14;;;;;;;35.58;18.92;;;4.70;99.90;;;;;;5051773;28;20025;-46
2021/03/01 04:28:40;;;;;;;40.63;20.92;;;4.70;99.90;;;;;;5051708;28;20047;-46
2021/03/01 04:31:10;;;;;;;36.72;19.92;;;4.70;99.90;;;;;;5050628;28;20546;-46
2021/03/01 04:33:36;;;;;;;39.22;20.50;;;4.70;99.90;;;;;;5051492;28;20119;-50
2021/03/01 04:36:04;;;;;;;38.83;20.65;;;4.70;99.90;;;;;;5051123;28;20033;-46
2021/03/01 04:38:30;;;;;;;38.60;19.25;;;4.80;99.90;;;;;;5051856;28;20028;-47
2021/03/01 04:40:56;;;;;;;39.53;20.38;;;4.80;99.90;;;;;;5051816;28;20107;-49
2021/03/01 04:43:23;;;;;;;45.08;21.02;;;4.70;99.90;;;;;;5051400;28;20017;-47
2021/03/01 04:45:53;;;;;;;38.72;20.15;;;4.70;99.90;;;;;;5049856;28;20518;-46
2021/03/01 04:48:20;;;;;;;37.00;19.25;;;4.70;99.90;;;;;;5051536;28;20517;-46
2021/03/01 04:50:48;;;;;;;34.85;17.98;;;4.70;99.90;;;;;;5051809;28;20025;-45
2021/03/01 04:53:15;;;;;;;33.10;17.38;;;4.70;99.90;;;;;;5051838;28;20056;-46
2021/03/01 04:55:41;;;;;;;31.13;16.40;;;4.70;99.90;;;;;;5051119;28;20123;-48
2021/03/01 04:58:07;;;;;;;28.83;16.35;;;4.70;99.90;;;;;;5051757;28;20112;-45
2021/03/01 05:00:34;;;;;;;28.92;16.73;;;4.70;99.90;;;;;;5054040;28;20031;-45
2021/03/01 05:03:01;;;;;;;29.70;17.02;;;4.70;99.90;;;;;;5060716;28;20075;-47
2021/03/01 05:05:27;;;;;;;37.00;19.13;;;4.70;99.90;;;;;;5057780;28;20364;-45
2021/03/01 05:07:58;;;;;;;37.85;19.95;;;4.70;99.90;;;;;;5061065;28;20101;-46
2021/03/01 05:10:25;;;;;;;35.65;18.73;;;4.70;99.90;;;;;;5051045;28;20017;-45
2021/03/01 05:12:52;;;;;;;35.67;19.83;;;4.70;99.90;;;;;;5051063;28;20025;-45
2021/03/01 05:15:17;;;;;;;38.97;20.55;;;4.70;99.90;;;;;;5050492;28;20033;-46
2021/03/01 05:17:43;;;;;;;37.38;20.02;;;4.70;99.90;;;;;;5049791;28;20040;-45
2021/03/01 05:20:08;;;;;;;34.35;18.25;;;4.70;99.90;;;;;;5050719;28;20021;-45
2021/03/01 05:22:34;;;;;;;37.30;19.58;;;4.70;99.90;;;;;;5049878;28;20505;-48
2021/03/01 05:24:59;;;;;;;37.58;19.05;;;4.70;99.90;;;;;;5050217;28;20274;-45
2021/03/01 05:27:25;;;;;;;38.00;20.33;;;4.70;99.90;;;;;;5050905;28;20033;-46
2021/03/01 05:29:50;;;;;;;35.95;19.77;;;4.70;99.90;;;;;;5050033;28;20028;-48
2021/03/01 05:32:16;;;;;;;40.05;20.00;;;4.60;99.90;;;;;;5050681;28;20409;-46
2021/03/01 05:34:41;;;;;;;34.13;18.85;;;4.70;99.90;;;;;;5050730;28;20082;-46
2021/03/01 05:37:07;;;;;;;38.55;18.58;;;4.70;99.90;;;;;;5050327;28;20071;-46
2021/03/01 05:39:32;;;;;;;35.47;18.65;;;4.60;99.90;;;;;;5052157;28;20029;-46
2021/03/01 05:41:58;;;;;;;35.55;19.10;;;4.60;99.90;;;;;;5058987;28;20462;-47
2021/03/01 05:44:25;;;;;;;33.20;18.27;;;4.60;99.90;;;;;;5058784;28;20096;-49
2021/03/01 05:46:54;;;;;;;39.60;18.90;;;4.60;99.90;;;;;;5056320;28;20061;-46
2021/03/01 05:49:20;;;;;;;39.55;20.83;;;4.60;99.90;;;;;;5057645;28;20025;-48
2021/03/01 05:51:50;;;;;;;38.55;19.73;;;4.60;99.90;;;;;;5056956;28;20029;-47
2021/03/01 05:54:20;;;;;;;47.17;21.30;;;4.60;99.90;;;;;;5050388;28;20017;-46
2021/03/01 05:56:47;;;;;;;38.33;19.30;;;4.60;99.90;;;;;;5049363;28;20279;-46
2021/03/01 05:59:16;;;;;;;34.28;19.73;;;4.50;99.90;;;;;;5050128;28;20222;-47
2021/03/01 06:01:43;;;;;;;44.90;20.95;;;4.50;99.90;;;;;;5050175;28;20021;-46
2021/03/01 06:04:10;;;;;;;38.45;20.23;;;4.50;99.90;;;;;;5050097;28;20536;-46
2021/03/01 06:06:36;;;;;;;38.40;19.52;;;4.50;99.90;;;;;;5048799;28;20033;-45
2021/03/01 06:09:01;;;;;;;37.55;19.88;;;4.50;99.90;;;;;;5050030;28;20094;-44
2021/03/01 06:11:27;;;;;;;36.67;19.25;;;4.50;99.90;;;;;;5049711;28;20129;-45
2021/03/01 06:13:53;;;;;;;47.72;22.38;;;4.40;99.90;;;;;;5049931;28;20041;-47
2021/03/01 06:16:18;;;;;;;37.75;20.70;;;4.50;99.90;;;;;;5055839;28;20033;-47
2021/03/01 06:18:45;;;;;;;40.60;20.90;;;4.50;99.90;;;;;;5063296;28;20509;-47
2021/03/01 06:21:16;;;;;;;40.10;19.55;;;4.50;99.90;;;;;;5050579;28;20014;-47
2021/03/01 06:23:45;;;;;;;45.97;21.40;;;4.50;99.90;;;;;;5049536;28;20052;-47
2021/03/01 06:26:34;;;;;;;36.90;19.80;;;4.50;99.90;;;;;;5058161;28;20378;-50
2021/03/01 06:29:02;;;;;;;40.05;18.67;;;4.60;99.90;;;;;;5052855;28;20044;-47
2021/03/01 06:31:41;;;;;;;37.35;19.38;;;4.60;99.90;;;;;;5052881;28;20102;-47
2021/03/01 06:34:29;;;;;;;38.88;20.30;;;4.60;99.90;;;;;;5055279;28;20370;-48
2021/03/01 06:36:57;;;;;;;36.47;19.42;;;4.60;99.90;;;;;;5050674;28;20445;-47
2021/03/01 06:39:29;;;;;;;40.03;18.88;;;4.60;99.90;;;;;;5053976;28;20029;-48
2021/03/01 06:41:56;;;;;;;40.92;20.13;;;4.60;99.90;;;;;;5048570;28;20053;-47
2021/03/01 06:44:21;;;;;;;37.72;19.33;;;4.60;99.90;;;;;;5046869;28;20471;-47
2021/03/01 06:46:52;;;;;;;35.67;20.02;;;4.60;99.90;;;;;;5048062;28;20033;-50
2021/03/01 06:49:19;;;;;;;35.22;20.17;;;4.60;99.90;;;;;;5049128;28;20126;-48
2021/03/01 06:51:45;;;;;;;35.50;19.25;;;4.60;99.90;;;;;;5055909;28;20032;-46
2021/03/01 06:54:12;;;;;;;36.15;18.42;;;4.60;99.90;;;;;;5048857;28;20029;-48
2021/03/01 06:56:39;;;;;;;32.78;19.35;;;4.60;99.90;;;;;;5047787;28;20033;-46
2021/03/01 06:59:16;;;;;;;41.33;21.65;;;4.60;99.90;;;;;;5048490;28;20037;-46
2021/03/01 07:01:50;;;;;;;39.58;19.58;;;4.60;99.90;;;;;;5059405;28;20148;-47
2021/03/01 07:04:24;;;;;;;38.80;21.23;;;4.60;99.90;;;;;;5047052;28;20110;-46
2021/03/01 07:06:52;;;;;;;40.33;19.67;;;4.60;99.90;;;;;;5047957;28;20055;-46
2021/03/01 07:09:20;;;;;;;43.45;23.17;;;4.60;99.90;;;;;;5048533;28;20025;-48
2021/03/01 07:11:46;;;;;;;36.40;19.77;;;4.50;99.90;;;;;;5048566;28;20021;-47
2021/03/01 07:14:15;;;;;;;37.67;20.20;;;4.60;99.90;;;;;;5047263;28;20033;-47
2021/03/01 07:16:54;;;;;;;36.13;19.77;;;4.60;99.90;;;;;;5046964;28;20114;-48
2021/03/01 07:19:21;;;;;;;33.60;19.27;;;4.60;99.90;;;;;;5054575;28;20021;-47
2021/03/01 07:21:52;;;;;;;36.55;19.08;;;4.60;99.90;;;;;;5063829;28;20267;-47
2021/03/01 07:24:23;;;;;;;35.40;20.10;;;4.60;99.90;;;;;;5055278;28;20019;-47
2021/03/01 07:26:49;;;;;;;;;;;4.60;99.90;;;;;;5058773;28;20047;-47
2021/03/01 07:29:17;;;;;;;35.33;19.08;;;4.70;99.90;;;;;;5054353;28;20362;-47
2021/03/01 07:32:03;;;;;;;33.33;20.08;;;4.70;99.90;;;;;;5056726;28;20031;-47
2021/03/01 07:34:29;;;;;;;35.40;18.63;;;4.80;99.90;;;;;;5052531;28;20031;-50
2021/03/01 07:36:58;;;;;;;35.10;19.63;;;4.80;99.90;;;;;;5049953;28;20106;-48
2021/03/01 07:39:26;;;;;;;40.92;19.45;;;4.80;99.90;;;;;;5052888;28;20158;-49
2021/03/01 07:41:54;;;;;;;39.30;19.75;;;4.80;99.90;;;;;;5048716;28;20036;-47
2021/03/01 07:44:28;;;;;;;37.85;20.92;;;4.80;99.90;;;;;;5055535;28;20016;-47
2021/03/01 07:46:55;;;;;;;36.22;19.58;;;4.80;99.90;;;;;;5056019;28;20315;-48
2021/03/01 07:49:43;;;;;;;41.17;19.98;;;4.80;99.90;;;;;;5054995;28;20035;-46
2021/03/01 07:52:17;;;;;;;40.60;20.25;;;4.90;99.90;;;;;;5058866;28;20020;-48
2021/03/01 07:54:52;;;;;;;38.47;19.95;;;4.90;99.90;;;;;;5057973;28;20074;-48
2021/03/01 07:57:19;;;;;;;50.42;24.83;;;4.90;99.90;;;;;;5057245;28;20028;-47
2021/03/01 07:59:44;;;;;;;52.42;26.45;;;4.80;99.90;;;;;;5057546;28;20103;-47
2021/03/01 08:02:12;;;;;;;55.47;27.33;;;4.70;99.90;;;;;;5057887;28;20541;-47
2021/03/01 08:04:38;;;;;;;47.13;24.80;;;4.70;99.90;;;;;;5057080;28;20168;-47
2021/03/01 08:07:04;;;;;;;49.28;25.98;;;4.80;99.90;;;;;;5055454;28;20035;-50
2021/03/01 08:09:43;;;;;;;50.00;26.10;;;4.90;99.90;;;;;;5054294;28;20508;-47
2021/03/01 08:12:10;;;;;;;48.22;23.90;;;4.80;99.90;;;;;;5058275;28;20095;-48
2021/03/01 08:14:56;;;;;;;43.33;24.08;;;5.00;99.90;;;;;;5054683;28;20107;-49
2021/03/01 08:17:28;;;;;;;49.00;25.70;;;5.00;99.90;;;;;;5056880;28;20023;-47
2021/03/01 08:20:14;;;;;;;48.80;25.27;;;5.00;99.90;;;;;;5057004;28;20073;-47
2021/03/01 08:23:02;;;;;;;52.95;26.15;;;5.00;99.90;;;;;;5053581;28;20020;-47
2021/03/01 08:25:49;;;;;;;51.17;27.75;;;5.10;99.90;;;;;;5057455;28;20017;-49
2021/03/01 08:28:24;;;;;;;50.25;26.48;;;5.10;99.90;;;;;;5056202;28;20017;-47
2021/03/01 08:30:54;;;;;;;52.42;26.17;;;5.20;99.90;;;;;;5055761;28;20234;-48
2021/03/01 08:33:26;;;;;;;49.42;26.40;;;5.20;99.90;;;;;;5054806;28;20159;-47
2021/03/01 08:36:01;;;;;;;49.70;26.00;;;5.10;99.90;;;;;;5056284;28;20067;-47
2021/03/01 08:38:45;;;;;;;50.42;26.25;;;5.20;99.90;;;;;;5057196;28;20401;-47
2021/03/01 08:41:13;;;;;;;54.05;27.17;;;5.20;99.90;;;;;;5052838;28;20021;-49
2021/03/01 08:43:44;;;;;;;49.55;26.17;;;5.30;99.90;;;;;;5057336;28;20012;-47
2021/03/01 08:46:15;;;;;;;53.33;25.50;;;5.30;99.90;;;;;;5054615;28;20017;-49
2021/03/01 08:48:43;;;;;;;48.35;25.35;;;5.40;99.90;;;;;;5054976;28;20132;-48
2021/03/01 08:51:09;;;;;;;55.85;29.15;;;5.40;99.90;;;;;;5055583;28;20028;-47
2021/03/01 08:53:35;;;;;;;53.95;27.02;;;5.50;99.90;;;;;;5056617;28;20048;-48
2021/03/01 08:56:01;;;;;;;52.10;25.73;;;5.50;99.90;;;;;;5056188;28;20036;-47
2021/03/01 08:58:30;;;;;;;46.15;25.92;;;5.50;99.90;;;;;;5054508;28;20033;-48
2021/03/01 09:01:00;;;;;;;47.92;24.70;;;5.50;99.90;;;;;;5060053;28;20017;-47
2021/03/01 09:03:31;;;;;;;50.25;24.67;;;5.50;99.90;;;;;;5066552;28;20155;-47
2021/03/01 09:06:10;;;;;;;38.50;20.63;;;5.60;99.90;;;;;;5057708;28;20040;-47
2021/03/01 09:08:41;;;;;;;28.80;17.85;;;5.60;99.90;;;;;;5052185;28;20039;-50
2021/03/01 09:11:15;;;;;;;;;;;5.50;99.90;;;;;;5057510;28;20374;-48
2021/03/01 09:13:42;;;;;;;36.97;19.70;;;5.70;99.90;;;;;;5056222;28;19998;-47
2021/03/01 09:16:11;;;;;;;35.10;19.27;;;5.80;99.90;;;;;;5059410;28;20051;-46
2021/03/01 09:18:37;;;;;;;33.28;19.25;;;5.90;99.90;;;;;;5059352;28;20474;-48
2021/03/01 09:21:05;;;;;;;32.72;18.25;;;5.90;99.90;;;;;;5058045;28;20147;-47
2021/03/01 09:23:41;;;;;;;32.53;18.15;;;5.90;99.90;;;;;;5058306;28;20070;-50
2021/03/01 09:26:08;;;;;;;34.97;20.13;;;6.10;99.90;;;;;;5058453;28;20017;-48
2021/03/01 09:28:37;;;;;;;35.33;19.75;;;5.90;99.90;;;;;;5056588;28;20051;-47
2021/03/01 09:31:05;;;;;;;34.75;20.10;;;6.00;99.90;;;;;;5055459;28;20074;-47
2021/03/01 09:33:30;;;;;;;31.10;16.60;;;6.20;99.90;;;;;;5059642;28;20025;-47
2021/03/01 09:35:56;;;;;;;30.23;17.38;;;6.10;99.90;;;;;;5059406;28;20078;-46
2021/03/01 09:38:22;;;;;;;33.95;17.10;;;6.20;99.90;;;;;;5059219;28;20017;-48
2021/03/01 09:40:57;;;;;;;27.90;18.23;;;6.30;99.90;;;;;;5053344;28;20039;-47
2021/03/01 09:43:23;;;;;;;26.27;16.27;;;6.50;99.90;;;;;;5058932;28;20037;-53
2021/03/01 09:45:50;;;;;;;24.13;14.57;;;6.70;99.90;;;;;;5055462;28;20159;-46
2021/03/01 09:48:16;;;;;;;27.90;17.05;;;6.90;99.90;;;;;;5056034;28;20039;-48
2021/03/01 09:50:41;;;;;;;22.88;13.73;;;6.90;99.90;;;;;;5060329;28;20028;-47
2021/03/01 09:53:07;;;;;;;26.05;15.30;;;7.00;99.90;;;;;;5058743;28;20482;-48
2021/03/01 09:55:33;;;;;;;27.13;13.82;;;7.10;99.90;;;;;;5054536;28;20025;-47
2021/03/01 09:57:59;;;;;;;26.85;13.32;;;7.20;99.90;;;;;;5057938;28;20029;-47
2021/03/01 10:00:28;;;;;;;23.10;13.82;;;7.30;99.90;;;;;;5058021;28;20035;-46
2021/03/01 10:03:04;;;;;;;20.83;12.90;;;7.40;99.90;;;;;;5049436;28;20119;-46
2021/03/01 10:05:32;;;;;;;21.48;12.63;;;7.30;99.90;;;;;;5051850;28;20478;-48
2021/03/01 10:08:02;;;;;;;20.48;12.73;;;7.40;99.90;;;;;;5059102;28;20071;-49
2021/03/01 10:10:38;;;;;;;20.65;12.25;;;7.50;99.90;;;;;;5056264;28;20039;-47
2021/03/01 10:13:06;;;;;;;18.27;11.85;;;7.50;99.90;;;;;;5058973;28;20056;-47
2021/03/01 10:15:45;;;;;;;23.08;13.38;;;7.60;99.90;;;;;;5055831;28;20112;-47
2021/03/01 10:18:13;;;;;;;20.70;11.93;;;7.40;99.90;;;;;;5057743;28;20021;-50
2021/03/01 10:21:00;;;;;;;19.70;11.82;;;7.30;99.90;;;;;;5047071;28;20024;-50
2021/03/01 10:23:40;;;;;;;21.77;11.40;;;7.40;99.90;;;;;;5059929;28;20025;-47
2021/03/01 10:26:17;;;;;;;17.13;11.18;;;7.50;99.90;;;;;;5055298;28;20438;-47
2021/03/01 10:28:46;;;;;;;20.67;11.93;;;7.70;99.90;;;;;;5055413;28;20044;-48
2021/03/01 10:31:14;;;;;;;23.17;13.32;;;7.90;99.90;;;;;;5067258;28;20028;-49
2021/03/01 10:33:59;;;;;;;19.15;11.43;;;7.80;99.90;;;;;;5058379;28;20029;-47
2021/03/01 10:36:27;;;;;;;17.27;12.23;;;7.90;99.90;;;;;;5056310;28;20494;-47
2021/03/01 10:39:03;;;;;;;18.58;11.60;;;7.90;99.90;;;;;;5057354;28;20032;-47
2021/03/01 10:41:31;;;;;;;17.17;11.07;;;7.90;99.90;;;;;;5060093;28;20021;-46
2021/03/01 10:44:07;;;;;;;19.48;12.63;;;8.00;99.90;;;;;;5068371;28;20485;-48
2021/03/01 10:46:53;;;;;;;19.13;13.05;;;8.00;99.90;;;;;;5054107;28;20033;-47
2021/03/01 10:49:27;;;;;;;18.55;11.65;;;8.30;99.90;;;;;;5057058;28;20108;-47
2021/03/01 10:51:54;;;;;;;18.17;11.70;;;8.50;99.90;;;;;;5056678;28;20032;-48
2021/03/01 10:54:21;;;;;;;19.73;13.02;;;9.10;99.90;;;;;;5054162;28;20433;-49
2021/03/01 10:56:46;;;;;;;18.60;11.82;;;9.50;99.90;;;;;;5049928;28;20031;-47
2021/03/01 10:59:12;;;;;;;24.05;15.23;;;10.10;99.90;;;;;;5054701;28;20486;-47
2021/03/01 11:01:43;;;;;;;25.90;15.25;;;10.50;98.80;;;;;;5056617;28;20027;-50
2021/03/01 11:04:10;;;;;;;23.08;13.52;;;12.20;95.40;;;;;;5057662;28;20032;-48
2021/03/01 11:06:37;;;;;;;19.90;14.85;;;13.60;82.80;;;;;;5054873;28;20024;-53
2021/03/01 11:09:05;;;;;;;21.98;15.23;;;13.10;79.40;;;;;;5057329;28;20528;-48
2021/03/01 11:11:31;;;;;;;23.50;16.30;;;13.20;76.90;;;;;;5057074;28;20279;-48
2021/03/01 11:13:57;;;;;;;22.63;14.82;;;14.60;67.60;;;;;;5058804;28;20040;-49
2021/03/01 11:16:22;;;;;;;22.25;15.27;;;14.60;65.60;;;;;;5058202;28;20494;-48
2021/03/01 11:18:48;;;;;;;23.90;16.50;;;13.60;69.60;;;;;;5057032;28;20096;-51
2021/03/01 11:21:14;;;;;;;20.30;14.93;;;13.00;73.20;;;;;;5055282;28;20466;-47
2021/03/01 11:23:40;;;;;;;23.27;16.77;;;12.50;72.90;;;;;;5058567;28;20017;-48
2021/03/01 11:26:05;;;;;;;23.02;17.52;;;13.00;71.30;;;;;;5058265;28;20549;-47
2021/03/01 11:28:31;;;;;;;25.40;17.70;;;12.20;73.10;;;;;;5054449;28;20131;-47
2021/03/01 11:30:56;;;;;;;24.75;17.63;;;11.30;79.20;;;;;;5056984;28;20107;-47
2021/03/01 11:33:22;;;;;;;22.95;16.08;;;11.70;81.70;;;;;;5060314;28;20032;-48
2021/03/01 11:35:50;;;;;;;22.25;16.08;;;12.20;79.10;;;;;;5065896;28;20035;-47
2021/03/01 11:38:16;;;;;;;23.38;15.68;;;11.80;79.90;;;;;;5053849;28;20013;-48
2021/03/01 11:40:42;;;;;;;25.70;15.40;;;12.00;83.00;;;;;;5062599;28;20104;-47
2021/03/01 11:43:07;;;;;;;19.80;15.50;;;12.20;81.10;;;;;;5065709;28;20033;-47
2021/03/01 11:45:33;;;;;;;20.52;15.45;;;13.30;81.10;;;;;;5056640;28;20021;-48
2021/03/01 11:47:58;;;;;;;20.48;14.88;;;14.60;73.20;;;;;;5058066;28;20108;-47
2021/03/01 11:50:26;;;;;;;14.38;12.65;;;15.80;64.40;;;;;;5057269;28;20513;-48
2021/03/01 11:52:51;;;;;;;17.15;11.98;;;16.30;63.40;;;;;;5059691;28;20025;-48
2021/03/01 11:55:17;;;;;;;17.40;13.57;;;17.80;58.30;;;;;;5062682;28;20397;-48
2021/03/01 11:57:42;;;;;;;17.48;12.27;;;17.40;55.20;;;;;;5064589;28;20433;-48
2021/03/01 12:00:09;;;;;;;15.55;11.95;;;17.00;56.50;;;;;;5066597;28;20095;-48
2021/03/01 12:02:34;;;;;;;16.00;12.23;;;17.30;54.60;;;;;;5065706;28;20059;-48
2021/03/01 12:05:00;;;;;;;15.63;12.68;;;18.00;54.80;;;;;;5048039;28;20447;-48
2021/03/01 12:07:26;;;;;;;12.95;11.65;;;18.50;53.60;;;;;;5048493;28;20024;-48
2021/03/01 12:09:51;;;;;;;13.02;10.82;;;18.70;51.60;;;;;;5049259;28;20528;-48
2021/03/01 12:12:17;;;;;;;13.07;10.90;;;19.10;52.80;;;;;;5048159;28;20430;-52
2021/03/01 12:14:42;;;;;;;12.43;10.57;;;19.10;51.30;;;;;;5048144;28;20047;-51
2021/03/01 12:17:08;;;;;;;13.32;9.75;;;18.50;53.50;;;;;;5047610;28;20401;-48
2021/03/01 12:19:34;;;;;;;13.20;11.55;;;19.10;50.50;;;;;;5048296;28;20029;-48
2021/03/01 12:21:59;;;;;;;14.40;11.15;;;19.60;50.20;;;;;;5048477;28;20032;-48
2021/03/01 12:24:25;;;;;;;15.85;11.90;;;19.40;49.70;;;;;;5046701;28;20021;-47
2021/03/01 12:26:51;;;;;;;11.95;10.00;;;19.60;49.30;;;;;;5055962;28;20056;-48
2021/03/01 12:29:17;;;;;;;13.90;11.10;;;19.50;49.50;;;;;;5066377;28;20051;-50
2021/03/01 12:31:42;;;;;;;12.98;11.57;;;19.30;50.70;;;;;;5060164;28;20482;-50
2021/03/01 12:34:08;;;;;;;14.90;12.38;;;19.30;50.90;;;;;;5051660;28;20039;-48
2021/03/01 12:36:33;;;;;;;15.20;12.07;;;19.30;49.70;;;;;;5051297;28;20072;-47
2021/03/01 12:38:59;;;;;;;15.85;12.38;;;19.40;50.70;;;;;;5051886;28;20037;-47
2021/03/01 12:41:26;;;;;;;14.80;11.88;;;19.40;50.10;;;;;;5050692;28;20127;-48